Time;durP1;ratioP1;P1;durP2;ratioP2;P2;SDS_P1;SDS_P2;PMS_P1;PMS_P2;Temp;Humidity;BMP_temperature;BMP_pressure;BME280_temperature;BME280_humidity;BME280_pressure;Samples;Min_cycle;Max_cycle;Signal;HPM_P1;HPM_P2
2021/11/02 00:02:18;;;;;;;3.67;3.00;;;11.40;99.90;;;;;;10394154;28;20769;-81
2021/11/02 00:07:21;;;;;;;2.73;2.57;;;11.50;99.90;;;;;;10383637;28;20277;-81
2021/11/02 00:12:24;;;;;;;4.50;3.10;;;11.50;99.90;;;;;;10361562;28;20603;-81
2021/11/02 00:17:28;;;;;;;3.33;2.87;;;11.60;99.90;;;;;;10377481;28;20772;-81
2021/11/02 00:22:35;;;;;;;2.70;2.50;;;11.60;99.90;;;;;;10377524;28;20686;-81
2021/11/02 00:27:39;;;;;;;3.43;2.90;;;11.60;99.90;;;;;;10377223;28;20293;-81
2021/11/02 00:32:43;;;;;;;3.10;2.80;;;11.60;99.90;;;;;;10377312;28;20234;-81
2021/11/02 00:37:46;;;;;;;3.30;3.00;;;11.70;99.90;;;;;;10361225;28;20579;-81
2021/11/02 00:42:53;;;;;;;3.93;2.50;;;11.70;99.90;;;;;;10376421;28;20248;-81
2021/11/02 00:47:55;;;;;;;4.03;2.40;;;11.70;99.90;;;;;;10376284;28;20218;-81
2021/11/02 00:52:59;;;;;;;2.50;2.30;;;11.70;99.90;;;;;;10375180;28;20202;-81
2021/11/02 00:58:04;;;;;;;3.13;2.83;;;11.70;99.90;;;;;;10377479;28;20254;-82
2021/11/02 01:03:08;;;;;;;2.40;2.20;;;11.70;99.90;;;;;;10369541;28;20618;-81
2021/11/02 01:08:12;;;;;;;4.93;2.70;;;11.70;99.90;;;;;;10375093;28;20229;-81
2021/11/02 01:13:14;;;;;;;2.43;2.20;;;11.80;99.90;;;;;;10375044;28;20199;-81
2021/11/02 01:18:17;;;;;;;2.27;2.07;;;11.80;99.90;;;;;;10371953;28;20664;-81
2021/11/02 01:23:20;;;;;;;2.33;2.23;;;11.80;99.90;;;;;;10375968;28;20257;-81
2021/11/02 01:28:22;;;;;;;4.93;2.50;;;11.80;99.90;;;;;;10358567;28;20227;-81
2021/11/02 01:33:27;;;;;;;2.20;2.00;;;11.80;99.90;;;;;;10359134;28;20199;-81
2021/11/02 01:38:32;;;;;;;3.63;2.10;;;11.80;99.90;;;;;;10361451;28;20234;-81
2021/11/02 01:43:43;;;;;;;2.20;2.00;;;11.90;99.90;;;;;;10359303;28;20305;-81
2021/11/02 01:48:50;;;;;;;2.63;2.43;;;11.90;99.90;;;;;;10358745;28;20690;-81
2021/11/02 01:53:55;;;;;;;2.57;2.30;;;11.90;99.90;;;;;;10368797;28;20195;-81
2021/11/02 01:59:01;;;;;;;3.53;2.70;;;11.90;99.90;;;;;;10356731;28;20241;-81
2021/11/02 02:04:20;;;;;;;2.10;2.00;;;12.00;99.90;;;;;;10370658;28;20210;-81
2021/11/02 02:09:32;;;;;;;2.30;2.20;;;12.00;99.90;;;;;;10375020;28;20222;-81
2021/11/02 02:14:45;;;;;;;2.63;2.43;;;12.00;99.90;;;;;;10358510;28;20222;-81
2021/11/02 02:19:52;;;;;;;3.77;1.90;;;12.00;99.90;;;;;;10373832;28;20222;-82
2021/11/02 02:25:36;;;;;;;1.90;1.73;;;12.00;99.90;;;;;;10373495;28;20199;-81
2021/11/02 02:30:57;;;;;;;3.10;2.10;;;11.90;99.90;;;;;;10373171;28;20249;-81
2021/11/02 02:36:00;;;;;;;1.70;1.60;;;11.90;99.90;;;;;;10356977;28;20233;-81
2021/11/02 02:41:10;;;;;;;2.10;2.00;;;11.90;99.90;;;;;;10372127;28;20237;-81
2021/11/02 02:46:16;;;;;;;2.30;2.10;;;11.90;99.90;;;;;;10372318;28;20203;-81
2021/11/02 02:51:19;;;;;;;6.77;2.20;;;11.80;99.90;;;;;;10372764;28;20241;-81
2021/11/02 02:56:28;;;;;;;2.47;2.30;;;11.80;99.90;;;;;;10371985;28;20222;-81
2021/11/02 03:01:32;;;;;;;2.70;2.50;;;11.70;99.90;;;;;;10371854;28;20231;-81
2021/11/02 03:06:41;;;;;;;2.13;2.03;;;11.70;99.90;;;;;;10355339;28;20203;-81
2021/11/02 03:11:46;;;;;;;3.33;2.53;;;11.60;99.90;;;;;;10366246;28;20226;-81
2021/11/02 03:16:56;;;;;;;4.33;2.60;;;11.60;99.90;;;;;;10354716;28;20245;-81
2021/11/02 03:49:01;;;;;;;2.87;2.50;;;11.60;99.90;;;;;;10366685;28;20226;-81
2021/11/02 03:59:59;;;;;;;4.13;2.80;;;11.40;99.90;;;;;;10339988;28;20229;-81
2021/11/02 05:48:04;;;;;;;3.20;2.90;;;10.40;99.90;;;;;;10367625;28;20568;-80
2021/11/02 05:58:45;;;;;;;4.80;2.63;;;10.40;99.90;;;;;;10349494;28;20269;-81
2021/11/02 06:03:58;;;;;;;3.47;3.17;;;10.40;99.90;;;;;;10383852;28;20209;-82
2021/11/02 06:09:12;;;;;;;3.47;2.83;;;10.40;99.90;;;;;;10378944;28;20211;-81
2021/11/02 06:30:54;;;;;;;3.40;3.10;;;10.40;99.90;;;;;;10399341;28;20221;-81
2021/11/02 06:36:10;;;;;;;3.40;3.10;;;10.40;99.90;;;;;;10397864;28;20241;-82
2021/11/02 07:19:17;;;;;;;2.40;2.20;;;10.40;99.90;;;;;;10395744;28;20364;-82
2021/11/02 07:24:27;;;;;;;1.93;1.80;;;10.40;99.90;;;;;;10379114;28;20276;-82
2021/11/02 08:50:02;;;;;;;2.30;2.20;;;12.20;99.90;;;;;;10380763;28;20218;-82
2021/11/02 08:55:07;;;;;;;4.73;2.23;;;12.40;99.90;;;;;;10378981;28;20214;-82
2021/11/02 09:00:10;;;;;;;3.40;2.10;;;12.50;99.90;;;;;;10379663;28;20219;-82
2021/11/02 09:05:15;;;;;;;2.40;2.10;;;12.50;99.90;;;;;;10362878;28;20256;-82
2021/11/02 09:10:20;;;;;;;2.50;2.30;;;12.50;99.90;;;;;;10378375;28;20257;-82
2021/11/02 09:15:25;;;;;;;2.50;2.30;;;12.60;99.90;;;;;;10378597;28;20225;-82
2021/11/02 09:20:28;;;;;;;3.37;2.17;;;12.50;99.90;;;;;;10379092;28;20293;-82
2021/11/02 09:25:33;;;;;;;3.00;2.23;;;12.50;99.90;;;;;;10355195;28;20642;-82
2021/11/02 09:30:35;;;;;;;3.33;2.30;;;12.40;99.90;;;;;;10358874;28;20237;-82
2021/11/02 09:35:38;;;;;;;2.80;2.60;;;12.20;99.90;;;;;;10360057;28;20265;-81
2021/11/02 09:41:20;;;;;;;2.57;2.37;;;12.10;99.90;;;;;;10359239;28;20317;-81
2021/11/02 09:46:50;;;;;;;2.80;2.60;;;11.90;99.90;;;;;;10359411;28;20662;-81
2021/11/02 09:52:32;;;;;;;2.73;2.53;;;11.90;99.90;;;;;;10361729;28;20792;-83
2021/11/02 09:57:56;;;;;;;3.63;2.57;;;11.90;99.90;;;;;;10297468;28;20296;-82
2021/11/02 10:03:46;;;;;;;2.70;2.50;;;11.80;99.90;;;;;;10376567;28;20234;-81
2021/11/02 10:08:57;;;;;;;2.53;2.30;;;11.80;99.90;;;;;;10379800;28;20305;-82
2021/11/02 10:14:15;;;;;;;3.43;3.07;;;11.90;99.90;;;;;;10379496;28;20202;-84
2021/11/02 10:19:58;;;;;;;2.70;2.43;;;12.00;99.90;;;;;;10364161;28;20297;-82
2021/11/02 10:25:10;;;;;;;6.07;3.33;;;12.10;99.90;;;;;;10369511;28;20210;-81
2021/11/02 10:30:33;;;;;;;2.13;1.80;;;12.10;99.90;;;;;;10377186;28;20226;-81
2021/11/02 10:35:56;;;;;;;4.83;2.80;;;12.00;99.90;;;;;;10376943;28;20245;-82
2021/11/02 10:41:07;;;;;;;3.10;2.90;;;11.90;99.90;;;;;;10361412;28;20226;-83
2021/11/02 10:46:16;;;;;;;3.17;2.80;;;11.90;99.90;;;;;;10376824;28;20202;-81
2021/11/02 10:51:33;;;;;;;2.83;2.63;;;12.00;99.90;;;;;;10374225;28;20632;-82
2021/11/02 10:56:57;;;;;;;4.20;2.90;;;12.00;99.90;;;;;;10352166;28;20245;-82
2021/11/02 11:02:00;;;;;;;2.40;2.30;;;12.00;99.90;;;;;;10372404;28;20231;-81
2021/11/02 11:07:02;;;;;;;7.43;2.43;;;12.00;99.90;;;;;;10372168;28;20201;-81
2021/11/02 11:12:09;;;;;;;3.17;2.60;;;12.10;99.90;;;;;;10371783;28;20227;-81
2021/11/02 11:17:14;;;;;;;3.60;2.57;;;12.20;99.90;;;;;;10373314;28;20234;-81
2021/11/02 11:22:25;;;;;;;3.37;2.53;;;12.20;99.90;;;;;;10373164;28;20723;-83
2021/11/02 11:27:30;;;;;;;2.77;2.67;;;12.20;99.90;;;;;;10358647;28;20187;-82
2021/11/02 11:32:34;;;;;;;2.93;2.50;;;12.40;99.90;;;;;;10373637;28;20199;-82
2021/11/02 11:37:41;;;;;;;4.43;2.50;;;12.40;99.90;;;;;;10373330;28;20261;-82
2021/11/02 11:42:46;;;;;;;2.83;2.63;;;12.50;99.90;;;;;;10374360;28;20210;-81
2021/11/02 11:47:48;;;;;;;2.90;2.30;;;12.60;99.90;;;;;;10374061;28;20734;-81
2021/11/02 11:52:52;;;;;;;2.97;2.67;;;12.60;99.90;;;;;;10379210;28;20574;-81
2021/11/02 11:58:11;;;;;;;2.57;2.40;;;12.70;99.90;;;;;;10382764;28;20245;-81
2021/11/02 12:03:25;;;;;;;2.60;2.40;;;12.90;99.90;;;;;;10381657;28;20252;-81
2021/11/02 12:08:36;;;;;;;2.43;2.23;;;13.10;99.90;;;;;;10383703;28;20214;-81
2021/11/02 12:13:41;;;;;;;3.40;3.10;;;13.20;99.90;;;;;;10365773;28;20213;-82
2021/11/02 12:18:45;;;;;;;2.10;2.00;;;13.20;99.90;;;;;;10381185;28;20234;-82
2021/11/02 12:23:51;;;;;;;1.73;1.63;;;13.10;99.90;;;;;;10381359;28;20708;-81
2021/11/02 12:28:56;;;;;;;1.60;1.50;;;13.10;99.90;;;;;;10380917;28;20264;-81
2021/11/02 12:34:00;;;;;;;1.83;1.73;;;13.00;99.90;;;;;;10385451;28;20241;-82
2021/11/02 12:39:06;;;;;;;2.63;2.43;;;13.00;99.90;;;;;;10389292;28;20234;-83
2021/11/02 12:44:15;;;;;;;1.30;1.30;;;13.00;99.90;;;;;;10372635;28;20304;-81
2021/11/02 12:49:28;;;;;;;1.40;1.30;;;12.90;99.90;;;;;;10388877;28;20273;-82
2021/11/02 12:54:31;;;;;;;1.60;1.10;;;12.90;99.90;;;;;;10399974;28;20199;-81
2021/11/02 12:59:42;;;;;;;1.17;1.17;;;13.00;99.90;;;;;;10379163;28;20238;-81
2021/11/02 13:04:49;;;;;;;1.40;1.30;;;13.00;99.90;;;;;;10379306;28;20207;-82
2021/11/02 13:09:52;;;;;;;1.30;1.20;;;13.00;99.90;;;;;;10363353;28;20254;-82
2021/11/02 13:15:03;;;;;;;1.23;1.13;;;13.10;99.90;;;;;;10377604;28;20253;-81
2021/11/02 13:20:06;;;;;;;0.90;0.90;;;13.10;99.90;;;;;;10364152;28;20230;-81
2021/11/02 13:25:10;;;;;;;1.50;1.40;;;13.20;99.90;;;;;;10365105;28;20206;-82
2021/11/02 13:30:35;;;;;;;1.40;1.30;;;13.10;99.90;;;;;;10359979;28;20228;-81
2021/11/02 13:35:48;;;;;;;1.60;1.50;;;13.10;99.90;;;;;;10360845;28;20210;-82
2021/11/02 13:40:50;;;;;;;1.00;1.00;;;13.00;99.90;;;;;;10377983;28;20314;-81
2021/11/02 13:45:54;;;;;;;1.40;1.40;;;12.90;99.90;;;;;;10358709;28;20591;-81
2021/11/02 13:50:57;;;;;;;0.90;0.90;;;12.90;99.90;;;;;;10360494;28;20222;-81
2021/11/02 13:56:01;;;;;;;1.53;1.43;;;12.80;99.90;;;;;;10359540;28;20217;-82
2021/11/02 14:01:07;;;;;;;1.73;1.50;;;12.70;99.90;;;;;;10356081;28;20230;-81
2021/11/02 14:06:12;;;;;;;1.60;1.50;;;12.70;99.90;;;;;;10359229;28;20293;-81
2021/11/02 14:11:22;;;;;;;1.93;1.83;;;12.70;99.90;;;;;;10376485;28;20222;-81
2021/11/02 14:16:31;;;;;;;1.60;1.50;;;12.60;99.90;;;;;;10375274;28;20210;-81
2021/11/02 14:21:50;;;;;;;1.30;1.30;;;12.70;99.90;;;;;;10351693;28;20623;-81
2021/11/02 14:26:53;;;;;;;1.27;1.27;;;12.80;99.90;;;;;;10375228;28;20221;-81
2021/11/02 14:31:59;;;;;;;3.03;1.50;;;12.80;99.90;;;;;;10358883;28;20576;-80
2021/11/02 14:37:11;;;;;;;1.90;1.10;;;12.80;99.90;;;;;;10374871;28;20228;-80
2021/11/02 14:42:40;;;;;;;1.20;1.20;;;12.80;99.90;;;;;;10373691;28;20600;-80
2021/11/02 14:47:44;;;;;;;1.17;1.07;;;12.70;99.90;;;;;;10357721;28;20614;-81
2021/11/02 14:52:46;;;;;;;1.80;1.70;;;12.60;99.90;;;;;;10374628;28;20229;-82
2021/11/02 14:57:53;;;;;;;1.47;1.47;;;12.60;99.90;;;;;;10371997;28;20566;-80
2021/11/02 15:02:56;;;;;;;2.90;2.80;;;12.50;99.90;;;;;;10372345;28;20203;-81
2021/11/02 15:07:58;;;;;;;2.27;2.17;;;12.50;99.90;;;;;;10374469;28;20252;-82
2021/11/02 15:13:01;;;;;;;1.70;1.70;;;12.50;99.90;;;;;;10355143;28;20207;-82
2021/11/02 15:18:09;;;;;;;2.40;2.30;;;12.50;99.90;;;;;;10372273;28;20253;-81
2021/11/02 15:23:12;;;;;;;1.63;1.50;;;12.40;99.90;;;;;;10374160;28;20252;-80
2021/11/02 15:28:16;;;;;;;1.30;1.30;;;12.30;99.90;;;;;;10375467;28;20308;-81
2021/11/02 15:33:30;;;;;;;1.40;1.40;;;12.20;99.90;;;;;;10377654;28;20199;-81
2021/11/02 15:38:33;;;;;;;1.90;1.80;;;12.10;99.90;;;;;;10370472;28;20244;-81
2021/11/02 15:43:35;;;;;;;1.30;1.30;;;12.00;99.90;;;;;;10359452;28;20214;-80
2021/11/02 15:48:40;;;;;;;1.00;1.00;;;11.90;99.90;;;;;;10358532;28;20288;-80
2021/11/02 15:53:42;;;;;;;1.60;1.50;;;11.80;99.90;;;;;;10358416;28;20206;-81
2021/11/02 15:58:45;;;;;;;1.50;1.50;;;11.70;99.90;;;;;;10358004;28;20347;-81
2021/11/02 16:03:48;;;;;;;1.60;1.50;;;11.60;99.90;;;;;;10376636;28;20199;-81
2021/11/02 16:08:59;;;;;;;1.40;1.40;;;11.60;99.90;;;;;;10376568;28;20242;-81
2021/11/02 16:14:06;;;;;;;1.17;1.17;;;11.60;99.90;;;;;;10377518;28;20230;-81
2021/11/02 16:19:10;;;;;;;15.53;10.00;;;11.60;99.90;;;;;;10377306;28;20257;-81
2021/11/02 16:24:12;;;;;;;3.17;2.97;;;11.60;99.90;;;;;;10376734;28;20225;-81
2021/11/02 16:29:17;;;;;;;1.67;1.57;;;11.60;99.90;;;;;;10377724;28;20242;-81
2021/11/02 16:34:23;;;;;;;1.90;1.80;;;11.60;99.90;;;;;;10360232;28;20256;-82
2021/11/02 16:39:26;;;;;;;1.70;1.60;;;11.60;99.90;;;;;;10381962;28;20245;-82
2021/11/02 16:44:34;;;;;;;2.20;2.10;;;11.70;99.90;;;;;;10383760;28;20682;-80
2021/11/02 16:49:43;;;;;;;2.30;2.10;;;11.70;99.90;;;;;;10366978;28;20223;-80
2021/11/02 16:54:46;;;;;;;1.70;1.60;;;11.70;99.90;;;;;;10376652;28;20253;-82
2021/11/02 16:59:51;;;;;;;2.40;2.30;;;11.70;99.90;;;;;;10386855;28;20245;-81
2021/11/02 17:05:10;;;;;;;1.87;1.77;;;11.70;99.90;;;;;;10388943;28;20218;-81
2021/11/02 17:10:35;;;;;;;2.37;2.27;;;11.60;99.90;;;;;;10371611;28;20241;-80
2021/11/02 17:15:41;;;;;;;2.90;2.70;;;11.50;99.90;;;;;;10364947;28;20329;-79
2021/11/02 17:20:47;;;;;;;4.27;3.30;;;11.40;99.90;;;;;;10371098;28;20261;-80
2021/11/02 17:25:50;;;;;;;3.30;3.10;;;11.40;99.90;;;;;;10388554;28;20195;-82
2021/11/02 17:30:52;;;;;;;3.07;2.90;;;11.40;99.90;;;;;;10370649;28;20230;-81
2021/11/02 17:35:56;;;;;;;27.80;25.13;;;11.30;99.90;;;;;;10388263;28;20199;-80
2021/11/02 17:41:01;;;;;;;4.90;4.50;;;11.20;99.90;;;;;;10369887;28;20249;-80
2021/11/02 17:46:04;;;;;;;6.10;5.10;;;11.10;99.90;;;;;;10370707;28;20214;-79
2021/11/02 17:51:08;;;;;;;7.27;6.77;;;11.10;99.90;;;;;;10377067;28;20227;-79
2021/11/02 17:56:13;;;;;;;3.90;3.67;;;11.00;99.90;;;;;;10405710;22;20239;-84
2021/11/02 18:01:20;;;;;;;6.07;5.47;;;10.90;99.90;;;;;;10457202;28;20224;-85
2021/11/02 18:06:24;;;;;;;5.67;5.27;;;10.90;99.90;;;;;;10453841;28;20227;-84
2021/11/02 18:11:26;;;;;;;19.20;16.43;;;10.80;99.90;;;;;;10437874;28;20579;-85
2021/11/02 19:16:56;;;;;;;3.23;3.03;;;10.30;99.90;;;;;;2780953;26;20235;-82
2021/11/02 19:21:58;;;;;;;4.60;4.30;;;10.30;99.90;;;;;;10281835;28;20339;-82
2021/11/02 19:39:06;;;;;;;4.63;2.60;;;10.30;99.90;;;;;;10788463;23;20235;-82
2021/11/02 19:44:09;;;;;;;3.53;3.33;;;10.30;99.90;;;;;;10282787;28;20278;-82
2021/11/02 19:55:30;;;;;;;3.20;2.97;;;10.20;99.90;;;;;;10285946;28;20219;-81
2021/11/02 20:06:19;;;;;;;3.73;3.40;;;10.20;99.90;;;;;;10278689;28;20719;-81
2021/11/02 20:12:10;;;;;;;;;;;;;;;;;;;;;
2021/11/02 20:23:38;;;;;;;3.80;3.60;;;10.30;99.90;;;;;;10221536;28;20209;-84
2021/11/02 20:29:12;;;;;;;2.90;2.60;;;10.30;99.90;;;;;;10285790;28;20231;-81
2021/11/02 20:34:16;;;;;;;3.67;3.23;;;10.30;99.90;;;;;;10294655;28;20210;-82
2021/11/02 20:39:19;;;;;;;2.83;2.63;;;10.40;99.90;;;;;;10288437;28;20234;-82
2021/11/02 20:44:27;;;;;;;4.33;4.03;;;10.50;99.90;;;;;;10289129;28;20204;-82
2021/11/02 20:49:35;;;;;;;4.43;4.13;;;10.50;99.90;;;;;;10328645;28;20208;-83
2021/11/02 20:54:40;;;;;;;3.27;3.07;;;10.60;99.90;;;;;;10274099;28;20736;-83
2021/11/02 20:59:44;;;;;;;4.33;4.03;;;10.60;99.90;;;;;;10269287;28;20779;-82
2021/11/02 21:04:47;;;;;;;4.83;3.77;;;10.60;99.90;;;;;;10272613;28;20215;-82
2021/11/02 21:09:51;;;;;;;3.60;3.40;;;10.60;99.90;;;;;;10302131;28;20231;-82
2021/11/02 21:14:56;;;;;;;3.63;3.33;;;10.50;99.90;;;;;;10299132;28;20680;-83
2021/11/02 21:42:14;;;;;;;3.47;3.17;;;10.20;99.90;;;;;;10613031;22;20246;-83
2021/11/02 21:47:27;;;;;;;3.47;3.00;;;10.10;99.90;;;;;;10267080;28;20236;-83
2021/11/02 21:52:35;;;;;;;3.37;3.17;;;10.10;99.90;;;;;;10293609;28;20203;-84
2021/11/02 21:58:29;;;;;;;2.50;2.40;;;10.10;99.90;;;;;;10263996;28;20251;-84
2021/11/02 22:04:16;;;;;;;3.40;3.10;;;10.10;99.90;;;;;;10285403;28;20295;-84
2021/11/02 22:09:27;;;;;;;3.93;3.03;;;10.00;99.90;;;;;;10288327;28;20311;-84
2021/11/02 22:14:31;;;;;;;3.00;2.80;;;9.90;99.90;;;;;;10272592;28;20214;-84
2021/11/02 22:19:33;;;;;;;2.90;2.70;;;9.80;99.90;;;;;;10274818;28;20739;-84
2021/11/02 22:24:36;;;;;;;2.63;2.43;;;9.80;99.90;;;;;;10298133;28;20215;-84
2021/11/02 22:29:40;;;;;;;2.40;2.30;;;9.80;99.90;;;;;;10273757;28;20350;-84
2021/11/02 22:34:43;;;;;;;3.10;2.80;;;9.70;99.90;;;;;;10287080;28;20290;-84
2021/11/02 22:39:55;;;;;;;3.00;2.80;;;9.70;99.90;;;;;;10294607;28;20228;-84
2021/11/02 22:44:59;;;;;;;2.93;2.73;;;9.70;99.90;;;;;;10257831;28;20299;-84
2021/11/02 22:50:02;;;;;;;3.00;2.83;;;9.70;99.90;;;;;;10291596;28;20255;-84
2021/11/02 22:55:05;;;;;;;2.93;2.60;;;9.70;99.90;;;;;;10276829;28;20211;-84
2021/11/02 23:00:10;;;;;;;3.33;3.10;;;9.70;99.90;;;;;;10273689;28;20332;-84
2021/11/02 23:05:12;;;;;;;2.60;2.40;;;9.70;99.90;;;;;;10280907;28;20208;-84
2021/11/02 23:10:14;;;;;;;2.60;2.50;;;9.60;99.90;;;;;;10294527;28;20239;-84
2021/11/02 23:26:08;;;;;;;4.93;4.50;;;9.50;99.90;;;;;;2800703;26;20230;-85
2021/11/02 23:31:12;;;;;;;5.30;4.80;;;9.50;99.90;;;;;;10236539;29;20224;-82
2021/11/02 23:36:17;;;;;;;5.20;4.63;;;9.60;99.90;;;;;;10255394;29;20247;-83
2021/11/02 23:58:31;;;;;;;4.43;4.13;;;9.80;99.90;;;;;;11348740;22;20235;-83
